White Marsh, Maryland
Current Conditions -  °F | °C
As of 1:45 PM on Friday 24 Oct 2014 (Local Time) from KMTN Reporting Station
Scattered Clouds Scattered Clouds  
Wind Chill: 66°   Ceiling: Unl
Heat Index: 66°   Visibility: 10mi
Dew Point: 46°   Wind: 17mph
Humidity: 49%   Direction: 290°WNW
Pressure: 29.89"   Gusts: NA
Location:  39.39°N, 76.41°W
Report Text: KMTN 241745Z 29015KT 10SM SCT120 SCT200 19/08 A2989
Loading
Personal Weather Stations






























Interactive Weather Map
Tropical Storm Tracking
New forecast layout! Learn more

10-Day Weather Forecast

Advertisements
Track Severe Weather on mobile